Bera, Spain
Current Conditions -  °F | °C
As of 7:00 AM on Wednesday 26 Nov 2014 (Local Time) from LESO Reporting Station
Light Rain Light Rain  
Wind Chill: 54°   Ceiling: 1400
Heat Index: 54°   Visibility: 3mi
Dew Point: 54°   Wind: 2mph
Humidity: 100%   Direction: NA
Pressure: 29.94"   Gusts: NA
Location:  43.28°N, 1.69°W
Report Text: LESO 260600Z VRB02KT 5000 -RA FEW008 BKN014 OVC019 12/12 Q1014
Loading
Personal Weather Stations






























Interactive Weather Map New forecast layout! Learn more

10-Day Weather Forecast

Advertisements
Track Severe Weather on mobile